Time;durP1;ratioP1;P1;durP2;ratioP2;P2;SDS_P1;SDS_P2;PMS_P1;PMS_P2;Temp;Humidity;BMP_temperature;BMP_pressure;BME280_temperature;BME280_humidity;BME280_pressure;Samples;Min_cycle;Max_cycle;Signal;HPM_P1;HPM_P2
2021/12/22 00:00:21;;;;;;;38.23;17.70;;;-7.90;99.90;;;;;;4975262;28;20679;-56
2021/12/22 00:02:48;;;;;;;41.30;18.30;;;-7.90;99.90;;;;;;4988692;28;20227;-56
2021/12/22 00:05:17;;;;;;;44.10;18.20;;;-8.00;99.90;;;;;;4984270;28;20207;-56
2021/12/22 00:07:45;;;;;;;37.13;16.83;;;-8.10;99.90;;;;;;4991800;28;20215;-55
2021/12/22 00:10:14;;;;;;;38.67;16.27;;;-8.10;99.90;;;;;;4991781;28;20596;-55
2021/12/22 00:12:41;;;;;;;36.30;16.47;;;-8.10;99.90;;;;;;4992063;28;20692;-53
2021/12/22 00:15:08;;;;;;;34.80;15.80;;;-8.10;99.90;;;;;;4992140;28;20210;-54
2021/12/22 00:17:35;;;;;;;33.07;15.37;;;-8.10;99.90;;;;;;4991980;28;20214;-52
2021/12/22 00:20:03;;;;;;;31.77;15.30;;;-8.10;99.90;;;;;;4994354;28;20216;-55
2021/12/22 00:22:29;;;;;;;35.90;15.40;;;-8.20;99.90;;;;;;4976074;28;20212;-55
2021/12/22 00:24:56;;;;;;;36.60;16.50;;;-8.20;99.90;;;;;;4976464;28;20208;-54
2021/12/22 00:27:24;;;;;;;36.60;16.60;;;-8.30;99.90;;;;;;4976166;28;20862;-54
2021/12/22 00:29:52;;;;;;;31.70;15.97;;;-8.30;99.90;;;;;;4976422;28;20211;-54
2021/12/22 00:32:19;;;;;;;29.90;16.10;;;-8.30;99.90;;;;;;4976278;28;20613;-55
2021/12/22 00:34:50;;;;;;;36.70;16.17;;;-8.40;99.90;;;;;;4975694;28;20254;-57
2021/12/22 00:37:19;;;;;;;33.83;16.50;;;-8.40;99.90;;;;;;4976805;28;20200;-52
2021/12/22 00:39:47;;;;;;;34.83;16.13;;;-8.50;99.90;;;;;;4987973;28;20207;-56
2021/12/22 00:42:15;;;;;;;34.07;16.20;;;-8.50;99.90;;;;;;4995403;28;20207;-59
2021/12/22 00:44:46;;;;;;;27.20;14.83;;;-8.50;99.90;;;;;;4994971;28;20231;-56
2021/12/22 00:47:13;;;;;;;35.33;15.47;;;-8.60;99.90;;;;;;4995273;28;20707;-57
2021/12/22 00:49:40;;;;;;;33.93;14.87;;;-8.70;99.90;;;;;;4987805;28;20226;-53
2021/12/22 00:52:07;;;;;;;32.47;14.93;;;-8.70;99.90;;;;;;4990830;28;20219;-57
2021/12/22 00:54:34;;;;;;;36.93;15.57;;;-8.80;99.90;;;;;;4995147;28;20214;-54
2021/12/22 00:57:04;;;;;;;33.23;14.80;;;-8.80;99.90;;;;;;4989062;28;20578;-56
2021/12/22 00:59:31;;;;;;;31.13;13.83;;;-8.80;99.90;;;;;;4975917;28;20261;-54
2021/12/22 01:02:00;;;;;;;33.13;15.07;;;-8.80;99.90;;;;;;4975503;28;20212;-57
2021/12/22 01:04:27;;;;;;;34.80;15.57;;;-8.80;99.90;;;;;;4990831;28;20219;-54
2021/12/22 01:06:54;;;;;;;32.47;15.23;;;-8.80;99.90;;;;;;4989082;28;20215;-56
2021/12/22 01:09:22;;;;;;;37.97;15.33;;;-8.90;99.90;;;;;;4994752;28;20230;-56
2021/12/22 01:11:49;;;;;;;33.77;15.23;;;-8.90;99.90;;;;;;4991127;28;20230;-56
2021/12/22 01:14:16;;;;;;;33.50;14.77;;;-8.90;99.90;;;;;;4981599;28;20200;-58
2021/12/22 01:16:47;;;;;;;32.73;14.97;;;-8.90;99.90;;;;;;4976616;28;20587;-56
2021/12/22 01:19:20;;;;;;;32.97;15.33;;;-8.90;99.90;;;;;;4994622;28;20200;-54
2021/12/22 01:21:52;;;;;;;29.50;15.00;;;-9.10;99.90;;;;;;4983046;28;20202;-53
2021/12/22 01:24:28;;;;;;;28.47;13.80;;;-9.10;99.90;;;;;;4974986;28;20292;-56
2021/12/22 01:27:03;;;;;;;33.03;14.47;;;-9.20;99.90;;;;;;4975443;28;20693;-58
2021/12/22 01:29:30;;;;;;;32.67;14.70;;;-9.20;99.90;;;;;;4981434;28;20195;-58
2021/12/22 01:31:58;;;;;;;34.77;14.03;;;-9.20;99.90;;;;;;4994531;28;20250;-55
2021/12/22 01:34:27;;;;;;;38.43;15.30;;;-9.20;99.90;;;;;;4994425;28;20684;-55
2021/12/22 01:36:54;;;;;;;36.57;16.30;;;-9.20;99.90;;;;;;4988748;28;20208;-53
2021/12/22 01:39:21;;;;;;;33.03;15.33;;;-9.30;99.90;;;;;;4975210;28;20226;-56
2021/12/22 01:41:48;;;;;;;30.83;14.80;;;-9.30;99.90;;;;;;4975385;28;20575;-54
2021/12/22 01:44:31;;;;;;;32.10;15.00;;;-9.30;99.90;;;;;;4975142;28;20228;-55
2021/12/22 01:49:49;;;;;;;29.90;13.87;;;-9.30;99.90;;;;;;4975284;28;20190;-60
2021/12/22 01:52:17;;;;;;;31.67;13.93;;;-9.40;99.90;;;;;;4974820;28;20200;-57
2021/12/22 01:54:47;;;;;;;29.27;14.53;;;-9.40;99.90;;;;;;4974893;28;20449;-54
2021/12/22 01:57:14;;;;;;;27.07;14.10;;;-9.40;99.90;;;;;;4974983;28;20208;-54
2021/12/22 01:59:43;;;;;;;27.30;14.20;;;-9.40;99.90;;;;;;4974644;28;20215;-55
2021/12/22 02:02:12;;;;;;;29.87;13.47;;;-9.50;99.90;;;;;;4975072;28;20227;-55
2021/12/22 02:04:41;;;;;;;26.00;12.50;;;-9.50;99.90;;;;;;4994070;28;20230;-54
2021/12/22 02:07:10;;;;;;;27.83;13.17;;;-9.50;99.90;;;;;;4978835;28;20604;-54
2021/12/22 02:09:58;;;;;;;25.43;12.87;;;-9.50;99.90;;;;;;4974462;28;20288;-58
2021/12/22 02:12:28;;;;;;;25.83;12.50;;;-9.50;99.90;;;;;;4974611;28;20586;-56
2021/12/22 02:14:55;;;;;;;25.20;12.93;;;-9.60;99.90;;;;;;4974069;28;20207;-56
2021/12/22 02:17:21;;;;;;;23.70;11.43;;;-9.60;99.90;;;;;;4974376;28;20230;-56
2021/12/22 02:19:50;;;;;;;21.23;11.30;;;-9.50;99.90;;;;;;4983386;28;20199;-56
2021/12/22 02:22:18;;;;;;;23.40;11.57;;;-9.50;99.90;;;;;;4980131;28;20196;-56
2021/12/22 02:24:47;;;;;;;23.80;11.77;;;-9.50;99.90;;;;;;4984040;28;20282;-57
2021/12/22 02:27:22;;;;;;;27.13;11.50;;;-9.50;99.90;;;;;;4973784;28;20220;-55
2021/12/22 02:29:49;;;;;;;25.40;12.23;;;-9.50;99.90;;;;;;4989826;28;20222;-57
2021/12/22 02:32:35;;;;;;;21.80;10.93;;;-9.50;99.90;;;;;;4993544;28;20595;-56
2021/12/22 02:35:05;;;;;;;23.50;12.60;;;-9.60;99.90;;;;;;4993298;28;20235;-58
2021/12/22 02:37:41;;;;;;;27.10;13.40;;;-9.50;99.90;;;;;;4993444;28;20206;-58
2021/12/22 02:40:13;;;;;;;24.80;12.40;;;-9.60;99.90;;;;;;4993424;28;20651;-55
2021/12/22 02:42:40;;;;;;;26.53;12.50;;;-9.60;99.90;;;;;;4992951;28;20200;-55
2021/12/22 02:45:08;;;;;;;26.53;12.90;;;-9.60;99.90;;;;;;4978736;28;20616;-58
2021/12/22 02:47:34;;;;;;;29.20;12.93;;;-9.60;99.90;;;;;;4980620;28;20231;-54
2021/12/22 02:50:03;;;;;;;27.00;12.50;;;-9.60;99.90;;;;;;4992166;28;20207;-55
2021/12/22 02:52:38;;;;;;;25.70;13.87;;;-9.70;99.90;;;;;;4992842;28;20223;-58
2021/12/22 02:55:05;;;;;;;25.70;12.33;;;-9.70;99.90;;;;;;4991843;28;20321;-58
2021/12/22 02:57:40;;;;;;;26.87;13.10;;;-9.70;99.90;;;;;;4992719;28;20215;-54
2021/12/22 03:00:35;;;;;;;23.93;11.87;;;-9.80;99.90;;;;;;4992847;28;20662;-56
2021/12/22 03:03:09;;;;;;;27.17;12.20;;;-9.80;99.90;;;;;;4992124;28;20199;-55
2021/12/22 03:05:38;;;;;;;24.23;11.67;;;-9.80;99.90;;;;;;4992786;28;20188;-53
2021/12/22 03:08:06;;;;;;;28.73;13.13;;;-9.80;99.90;;;;;;4992450;28;20302;-54
2021/12/22 03:10:33;;;;;;;29.13;13.07;;;-9.90;99.90;;;;;;4992914;28;20203;-52
2021/12/22 03:13:03;;;;;;;26.40;12.43;;;-9.90;99.90;;;;;;4991971;28;20211;-56
2021/12/22 03:15:31;;;;;;;27.60;12.13;;;-10.00;99.90;;;;;;4992519;28;20227;-53
2021/12/22 03:17:58;;;;;;;27.27;12.80;;;-9.90;99.90;;;;;;4992277;28;20215;-56
2021/12/22 03:20:25;;;;;;;24.83;12.33;;;-9.90;99.90;;;;;;4992398;28;20211;-55
2021/12/22 03:22:53;;;;;;;25.60;12.37;;;-9.90;99.90;;;;;;4991882;28;20222;-55
2021/12/22 03:25:25;;;;;;;25.87;12.53;;;-10.00;99.90;;;;;;4992525;28;20224;-52
2021/12/22 03:27:56;;;;;;;24.73;12.43;;;-10.00;99.90;;;;;;4992322;28;20219;-54
2021/12/22 03:30:26;;;;;;;30.03;13.40;;;-10.00;99.90;;;;;;4992558;28;20602;-53
2021/12/22 03:32:53;;;;;;;24.03;12.10;;;-10.10;99.90;;;;;;4992333;28;20204;-52
2021/12/22 03:35:21;;;;;;;20.73;11.30;;;-10.10;99.90;;;;;;4992124;28;20727;-54
2021/12/22 03:37:52;;;;;;;21.87;10.77;;;-10.10;99.90;;;;;;4992228;28;20242;-57
2021/12/22 03:40:21;;;;;;;23.00;10.40;;;-10.20;99.90;;;;;;4992146;28;20242;-51
2021/12/22 03:42:49;;;;;;;20.07;9.90;;;-10.20;99.90;;;;;;4991860;28;20563;-56
2021/12/22 03:45:16;;;;;;;19.13;9.50;;;-10.20;99.90;;;;;;4992075;28;20605;-55
2021/12/22 03:47:43;;;;;;;18.00;9.07;;;-10.20;99.90;;;;;;4991675;28;20207;-55
2021/12/22 03:50:11;;;;;;;19.33;8.57;;;-10.20;99.90;;;;;;4992421;28;20203;-54
2021/12/22 03:52:39;;;;;;;17.87;9.63;;;-10.20;99.90;;;;;;4991311;28;20204;-56
2021/12/22 03:55:07;;;;;;;18.43;8.80;;;-10.20;99.90;;;;;;4995411;28;20217;-55
2021/12/22 03:57:35;;;;;;;17.40;9.07;;;-10.10;99.90;;;;;;4996483;28;20214;-56
2021/12/22 04:00:04;;;;;;;17.13;8.70;;;-10.10;99.90;;;;;;4996245;28;20207;-54
2021/12/22 04:02:31;;;;;;;16.43;9.00;;;-10.00;99.90;;;;;;4996267;28;20226;-56
2021/12/22 04:04:58;;;;;;;16.57;8.50;;;-10.00;99.90;;;;;;4995961;28;20486;-54
2021/12/22 04:07:24;;;;;;;15.60;8.20;;;-9.90;99.90;;;;;;4995973;28;20620;-56
2021/12/22 04:09:52;;;;;;;17.10;8.60;;;-9.90;99.90;;;;;;4996242;28;20560;-56
2021/12/22 04:12:19;;;;;;;16.03;8.67;;;-9.80;99.90;;;;;;4996010;28;20640;-55
2021/12/22 04:14:47;;;;;;;15.70;7.70;;;-9.80;99.90;;;;;;4995270;28;20226;-57
2021/12/22 04:17:14;;;;;;;18.40;9.00;;;-9.80;99.90;;;;;;4995989;28;20253;-53
2021/12/22 04:19:41;;;;;;;13.97;8.23;;;-9.70;99.90;;;;;;4994900;28;20550;-56
2021/12/22 04:22:08;;;;;;;17.60;8.33;;;-9.70;99.90;;;;;;4995538;28;20211;-53
2021/12/22 04:24:35;;;;;;;18.10;8.57;;;-9.60;99.90;;;;;;4995857;28;20277;-55
2021/12/22 04:27:02;;;;;;;17.03;8.47;;;-9.60;99.90;;;;;;4995720;28;20671;-53
2021/12/22 04:29:29;;;;;;;16.07;8.50;;;-9.60;99.90;;;;;;4995390;28;20543;-58
2021/12/22 04:31:57;;;;;;;14.93;8.30;;;-9.50;99.90;;;;;;4995352;28;20632;-56
2021/12/22 04:34:24;;;;;;;14.03;8.13;;;-9.50;99.90;;;;;;4995431;28;20701;-57
2021/12/22 04:36:51;;;;;;;19.03;8.73;;;-9.50;99.90;;;;;;4995267;28;20199;-56
2021/12/22 04:39:17;;;;;;;15.60;8.40;;;-9.40;99.90;;;;;;4995154;28;20203;-54
2021/12/22 04:41:44;;;;;;;17.10;8.70;;;-9.40;99.90;;;;;;4995280;28;20203;-54
2021/12/22 04:44:11;;;;;;;17.70;8.63;;;-9.40;99.90;;;;;;4995247;28;20591;-55
2021/12/22 04:46:38;;;;;;;18.73;9.03;;;-9.50;99.90;;;;;;4995028;28;20207;-54
2021/12/22 04:49:06;;;;;;;16.00;8.47;;;-9.40;99.90;;;;;;4994962;28;20207;-56
2021/12/22 04:51:35;;;;;;;15.90;8.13;;;-9.40;99.90;;;;;;4995084;28;20214;-57
2021/12/22 04:54:16;;;;;;;16.43;8.13;;;-9.40;99.90;;;;;;4994826;28;20213;-54
2021/12/22 04:56:43;;;;;;;16.33;8.10;;;-9.40;99.90;;;;;;4994795;28;20195;-54
2021/12/22 04:59:10;;;;;;;19.60;8.70;;;-9.30;99.90;;;;;;4994843;28;20206;-55
2021/12/22 05:01:37;;;;;;;16.90;8.20;;;-9.40;99.90;;;;;;4994631;28;20208;-53
2021/12/22 05:04:05;;;;;;;17.00;9.37;;;-9.40;99.90;;;;;;4994727;28;20257;-54
2021/12/22 05:06:34;;;;;;;17.03;8.77;;;-9.30;99.90;;;;;;4994702;28;20602;-55
2021/12/22 05:09:00;;;;;;;14.20;7.73;;;-9.30;99.90;;;;;;4994550;28;20214;-56
2021/12/22 05:11:27;;;;;;;14.67;8.10;;;-9.30;99.90;;;;;;4994609;28;20216;-54
2021/12/22 05:13:54;;;;;;;14.70;7.93;;;-9.30;99.90;;;;;;4994408;28;20239;-55
2021/12/22 05:16:21;;;;;;;15.80;8.23;;;-9.30;99.90;;;;;;4994545;28;20231;-57
2021/12/22 05:18:57;;;;;;;15.13;8.50;;;-9.30;99.90;;;;;;4994553;28;20218;-55
2021/12/22 05:21:26;;;;;;;16.50;9.00;;;-9.30;99.90;;;;;;4994524;28;20218;-56
2021/12/22 05:23:54;;;;;;;15.97;9.13;;;-9.20;99.90;;;;;;4994617;28;20211;-58
2021/12/22 05:26:22;;;;;;;17.30;9.20;;;-9.20;99.90;;;;;;4994557;28;20714;-55
2021/12/22 05:28:49;;;;;;;17.50;9.93;;;-9.20;99.90;;;;;;4994110;28;20216;-54
2021/12/22 05:31:16;;;;;;;19.83;9.93;;;-9.20;99.90;;;;;;4994342;28;20199;-54
2021/12/22 05:33:43;;;;;;;18.80;9.87;;;-9.20;99.90;;;;;;4994053;28;20211;-56
2021/12/22 05:36:10;;;;;;;19.90;10.10;;;-9.30;99.90;;;;;;4994004;28;20723;-56
2021/12/22 05:38:39;;;;;;;18.80;9.57;;;-9.30;99.90;;;;;;4994304;28;20584;-57
2021/12/22 05:41:06;;;;;;;21.57;10.50;;;-9.30;99.90;;;;;;4993861;28;20207;-53
2021/12/22 05:43:33;;;;;;;18.80;10.53;;;-9.20;99.90;;;;;;4994203;28;20211;-54
2021/12/22 05:46:01;;;;;;;17.57;9.00;;;-9.20;99.90;;;;;;4993843;28;20216;-56
2021/12/22 05:48:28;;;;;;;15.80;7.80;;;-9.20;99.90;;;;;;4993839;28;20215;-56
2021/12/22 05:50:57;;;;;;;14.17;7.77;;;-9.20;99.90;;;;;;4993814;28;20570;-55
2021/12/22 05:53:25;;;;;;;13.97;7.50;;;-9.20;99.90;;;;;;4993685;28;20678;-54
2021/12/22 05:55:53;;;;;;;13.00;7.33;;;-9.20;99.90;;;;;;4993491;28;20257;-51
2021/12/22 05:58:21;;;;;;;13.73;7.67;;;-9.20;99.90;;;;;;4993787;28;20210;-55
2021/12/22 06:00:48;;;;;;;11.60;7.00;;;-9.30;99.90;;;;;;4993168;28;20290;-56
2021/12/22 06:03:15;;;;;;;10.90;6.80;;;-9.30;99.90;;;;;;4994019;28;20227;-52
2021/12/22 06:05:42;;;;;;;14.83;7.30;;;-9.30;99.90;;;;;;4993633;28;20227;-55
2021/12/22 06:08:09;;;;;;;13.40;7.10;;;-9.30;99.90;;;;;;4993925;28;20214;-55
2021/12/22 06:10:36;;;;;;;12.97;7.40;;;-9.30;99.90;;;;;;4993653;28;20227;-57
2021/12/22 06:13:06;;;;;;;12.33;6.80;;;-9.30;99.90;;;;;;4993218;28;20206;-56
2021/12/22 06:15:33;;;;;;;11.27;6.60;;;-9.20;99.90;;;;;;4993346;28;20576;-55
2021/12/22 06:18:01;;;;;;;12.83;6.90;;;-9.20;99.90;;;;;;4993025;28;20585;-56
2021/12/22 06:20:29;;;;;;;13.73;7.73;;;-9.20;99.90;;;;;;4993394;28;20218;-56
2021/12/22 06:22:56;;;;;;;11.27;6.80;;;-9.20;99.90;;;;;;4993450;28;20286;-57
2021/12/22 06:25:24;;;;;;;12.47;6.90;;;-9.20;99.90;;;;;;4993236;28;20707;-55
2021/12/22 06:27:51;;;;;;;13.53;7.50;;;-9.20;99.90;;;;;;4993459;28;20215;-54
2021/12/22 06:30:20;;;;;;;11.00;6.83;;;-9.20;99.90;;;;;;4993342;28;20207;-55
2021/12/22 06:32:48;;;;;;;11.10;6.50;;;-9.20;99.90;;;;;;4993219;28;20282;-57
2021/12/22 06:35:15;;;;;;;9.67;6.00;;;-9.10;99.90;;;;;;4992846;28;20231;-55
2021/12/22 06:37:43;;;;;;;11.07;6.20;;;-9.10;99.90;;;;;;4993072;28;20699;-56
2021/12/22 06:40:11;;;;;;;10.53;6.30;;;-9.10;99.90;;;;;;4993285;28;20207;-53
2021/12/22 06:42:38;;;;;;;11.90;6.00;;;-9.10;99.90;;;;;;4992954;28;20218;-55
2021/12/22 06:45:07;;;;;;;11.73;6.37;;;-9.00;99.90;;;;;;4992840;28;20222;-56
2021/12/22 06:47:35;;;;;;;11.40;6.23;;;-9.00;99.90;;;;;;4992766;28;20728;-53
2021/12/22 06:50:02;;;;;;;14.70;6.33;;;-9.00;99.90;;;;;;4993053;28;20214;-57
2021/12/22 06:52:29;;;;;;;12.97;6.67;;;-9.00;99.90;;;;;;4990775;28;20211;-57
2021/12/22 06:54:55;;;;;;;12.03;6.33;;;-9.00;99.90;;;;;;4973339;28;20298;-54
2021/12/22 06:57:23;;;;;;;12.30;7.43;;;-9.00;99.90;;;;;;4973348;28;20211;-54
2021/12/22 06:59:49;;;;;;;9.47;6.40;;;-8.90;99.90;;;;;;4973069;28;20208;-54
2021/12/22 07:02:16;;;;;;;11.20;7.00;;;-8.90;99.90;;;;;;4982342;28;20199;-52
2021/12/22 07:04:44;;;;;;;10.33;6.07;;;-8.90;99.90;;;;;;4992498;28;20227;-56
2021/12/22 07:07:12;;;;;;;10.03;6.00;;;-8.90;99.90;;;;;;4992869;28;20266;-55
2021/12/22 07:09:39;;;;;;;10.63;5.77;;;-8.90;99.90;;;;;;4992566;28;20225;-53
2021/12/22 07:12:07;;;;;;;11.50;6.40;;;-8.90;99.90;;;;;;4992534;28;20230;-56
2021/12/22 07:14:33;;;;;;;10.90;6.50;;;-8.90;99.90;;;;;;4992653;28;20227;-55
2021/12/22 07:17:00;;;;;;;12.07;6.23;;;-8.90;99.90;;;;;;4992306;28;20199;-58
2021/12/22 07:19:27;;;;;;;10.43;5.70;;;-8.90;99.90;;;;;;4992032;28;20295;-59
2021/12/22 07:21:55;;;;;;;9.07;5.90;;;-8.90;99.90;;;;;;4992745;28;20218;-56
2021/12/22 07:24:22;;;;;;;13.07;6.90;;;-8.80;99.90;;;;;;4992195;28;20215;-54
2021/12/22 07:26:49;;;;;;;13.03;6.87;;;-8.90;99.90;;;;;;4991980;28;20309;-57
2021/12/22 07:29:15;;;;;;;11.57;6.60;;;-8.90;99.90;;;;;;4992176;28;20207;-54
2021/12/22 07:31:42;;;;;;;10.17;6.30;;;-8.90;99.90;;;;;;4990681;28;20216;-57
2021/12/22 07:34:15;;;;;;;11.93;6.70;;;-8.90;99.90;;;;;;4992453;28;20687;-55
2021/12/22 07:36:50;;;;;;;11.97;6.47;;;-8.90;99.90;;;;;;4973419;28;20645;-56
2021/12/22 07:39:18;;;;;;;12.17;6.53;;;-8.90;99.90;;;;;;4972824;28;20195;-56
2021/12/22 07:41:45;;;;;;;10.30;6.67;;;-8.80;99.90;;;;;;4972822;28;20215;-57
2021/12/22 07:44:12;;;;;;;10.73;6.13;;;-8.80;99.90;;;;;;4972921;28;20215;-54
2021/12/22 07:46:39;;;;;;;10.13;6.20;;;-8.80;99.90;;;;;;4988288;28;20223;-55
2021/12/22 07:49:05;;;;;;;11.83;6.77;;;-8.80;99.90;;;;;;4973085;28;20216;-56
2021/12/22 07:51:32;;;;;;;10.23;6.10;;;-8.90;99.90;;;;;;4972642;28;20298;-55
2021/12/22 07:54:00;;;;;;;10.77;6.07;;;-8.80;99.90;;;;;;4972943;28;20219;-53
2021/12/22 07:56:28;;;;;;;11.83;6.60;;;-8.70;99.90;;;;;;4988560;28;20250;-58
2021/12/22 07:58:55;;;;;;;11.43;7.20;;;-8.70;99.90;;;;;;4991911;28;20262;-56
2021/12/22 08:01:22;;;;;;;10.20;6.07;;;-8.70;99.90;;;;;;4991855;28;20203;-53
2021/12/22 08:03:49;;;;;;;10.77;6.50;;;-8.70;99.90;;;;;;4992120;28;20207;-56
2021/12/22 08:06:16;;;;;;;11.20;6.20;;;-8.70;99.90;;;;;;4989221;28;20219;-55
2021/12/22 08:08:43;;;;;;;10.47;6.03;;;-8.70;99.90;;;;;;4992146;28;20214;-56
2021/12/22 08:11:09;;;;;;;9.30;6.20;;;-8.70;99.90;;;;;;4991675;28;20235;-55
2021/12/22 08:13:38;;;;;;;12.23;6.40;;;-8.70;99.90;;;;;;4992110;28;20203;-55
2021/12/22 08:16:05;;;;;;;10.90;6.27;;;-8.70;99.90;;;;;;4991623;28;20195;-54
2021/12/22 08:18:32;;;;;;;13.30;6.53;;;-8.70;99.90;;;;;;4991555;28;20625;-55
2021/12/22 08:20:59;;;;;;;11.80;6.50;;;-8.70;99.90;;;;;;4978605;28;20203;-56
2021/12/22 08:23:26;;;;;;;17.13;8.67;;;-8.70;99.90;;;;;;4987715;28;20200;-55
2021/12/22 08:25:53;;;;;;;11.57;6.70;;;-8.70;99.90;;;;;;4983083;28;20315;-56
2021/12/22 08:28:20;;;;;;;11.23;6.90;;;-8.60;99.90;;;;;;4975216;28;20581;-56
2021/12/22 08:30:49;;;;;;;17.00;9.00;;;-8.60;99.90;;;;;;4977498;28;20500;-57
2021/12/22 08:33:21;;;;;;;11.17;7.17;;;-8.60;99.90;;;;;;4972202;28;20240;-56
2021/12/22 08:38:53;;;;;;;11.60;6.70;;;-8.60;99.90;;;;;;4990805;28;20202;-55
2021/12/22 08:41:21;;;;;;;12.83;7.20;;;-8.70;99.90;;;;;;4988893;28;20224;-55
2021/12/22 08:43:47;;;;;;;11.20;7.40;;;-8.60;99.90;;;;;;4983081;28;20567;-55
2021/12/22 08:46:16;;;;;;;11.67;7.57;;;-8.60;99.90;;;;;;4992651;28;20560;-55
2021/12/22 08:48:43;;;;;;;10.80;6.83;;;-8.50;99.90;;;;;;4976041;28;20215;-54
2021/12/22 08:51:10;;;;;;;10.17;5.83;;;-8.40;99.90;;;;;;4977168;28;20661;-57
2021/12/22 08:53:37;;;;;;;11.43;6.53;;;-8.40;99.90;;;;;;4994521;28;20231;-54
2021/12/22 08:56:05;;;;;;;10.73;6.60;;;-8.30;99.90;;;;;;4993803;28;20286;-53
2021/12/22 08:58:32;;;;;;;11.87;6.47;;;-8.30;99.90;;;;;;4991634;28;20239;-58
2021/12/22 09:00:59;;;;;;;11.30;6.73;;;-8.20;99.90;;;;;;4976178;28;20649;-55
2021/12/22 09:03:27;;;;;;;10.33;6.60;;;-8.20;99.90;;;;;;4992383;28;20211;-57
2021/12/22 09:05:55;;;;;;;11.77;7.13;;;-8.20;99.90;;;;;;4994720;28;20219;-58
2021/12/22 09:08:21;;;;;;;10.60;6.50;;;-8.20;99.90;;;;;;4995115;28;20211;-57
2021/12/22 09:10:48;;;;;;;10.90;6.80;;;-8.20;99.90;;;;;;4994889;28;20207;-55
2021/12/22 09:13:17;;;;;;;12.00;7.30;;;-8.20;99.90;;;;;;4994006;28;20200;-57
2021/12/22 09:15:44;;;;;;;10.87;7.03;;;-8.30;99.90;;;;;;4994972;28;20207;-57
2021/12/22 09:18:11;;;;;;;10.93;6.00;;;-8.20;99.90;;;;;;4979454;28;20219;-60
2021/12/22 09:20:39;;;;;;;12.23;7.00;;;-8.30;99.90;;;;;;4979858;28;20203;-55
2021/12/22 09:23:06;;;;;;;10.20;6.10;;;-8.30;99.90;;;;;;4994307;28;20214;-55
2021/12/22 09:25:33;;;;;;;11.13;6.23;;;-8.20;99.90;;;;;;4994534;28;20223;-57
2021/12/22 09:28:00;;;;;;;11.60;5.93;;;-8.00;99.90;;;;;;4994407;28;20258;-57
2021/12/22 09:30:27;;;;;;;12.13;6.97;;;-7.90;99.90;;;;;;4994459;28;20323;-55
2021/12/22 09:32:54;;;;;;;10.53;6.70;;;-7.80;99.90;;;;;;4994345;28;20218;-57
2021/12/22 09:35:22;;;;;;;9.70;6.20;;;-7.80;99.90;;;;;;4993699;28;20237;-55
2021/12/22 09:37:50;;;;;;;13.67;7.57;;;-7.80;99.90;;;;;;4994331;28;20215;-59
2021/12/22 09:40:17;;;;;;;10.93;6.60;;;-7.70;99.90;;;;;;4994044;28;20207;-56
2021/12/22 09:42:44;;;;;;;14.40;7.00;;;-7.50;99.90;;;;;;4994514;28;20666;-55
2021/12/22 09:45:11;;;;;;;12.00;6.20;;;-7.50;99.90;;;;;;4993935;28;20208;-58
2021/12/22 09:47:51;;;;;;;13.17;7.03;;;-7.40;99.90;;;;;;4994102;28;20213;-56
2021/12/22 09:50:35;;;;;;;12.13;6.93;;;-7.40;99.90;;;;;;4974919;28;20614;-57
2021/12/22 09:53:03;;;;;;;12.30;7.60;;;-7.40;99.90;;;;;;4973837;28;20602;-55
2021/12/22 09:55:33;;;;;;;13.77;6.90;;;-7.40;99.90;;;;;;4974565;28;20222;-55
2021/12/22 09:58:01;;;;;;;11.03;6.73;;;-7.30;99.90;;;;;;4976344;28;20288;-58
2021/12/22 10:00:29;;;;;;;13.23;7.13;;;-7.30;99.90;;;;;;4994060;28;20227;-57
2021/12/22 10:02:56;;;;;;;11.87;6.70;;;-7.20;99.90;;;;;;4994111;28;20210;-56
2021/12/22 10:05:23;;;;;;;11.27;7.17;;;-7.10;99.90;;;;;;4993704;28;20219;-56
2021/12/22 10:10:46;;;;;;;12.93;6.83;;;-7.10;99.90;;;;;;5109368;27;20540;-58
2021/12/22 10:13:16;;;;;;;11.17;6.53;;;-7.00;99.90;;;;;;5109234;28;20675;-57
2021/12/22 10:15:44;;;;;;;9.13;5.90;;;-6.90;99.90;;;;;;5109588;28;20192;-57
2021/12/22 10:18:12;;;;;;;11.83;6.43;;;-6.90;99.90;;;;;;5108831;28;20563;-55
2021/12/22 10:20:40;;;;;;;11.80;6.33;;;-7.00;99.90;;;;;;5109379;28;20200;-55
2021/12/22 10:23:22;;;;;;;12.07;6.47;;;-7.00;99.90;;;;;;5109195;28;20546;-54
2021/12/22 10:25:56;;;;;;;9.60;6.17;;;-6.80;99.90;;;;;;5109324;28;20198;-57
2021/12/22 10:28:24;;;;;;;10.27;6.07;;;-6.80;99.90;;;;;;5102749;28;20195;-57
2021/12/22 10:30:56;;;;;;;11.90;6.40;;;-6.70;99.90;;;;;;5104592;28;20647;-56
2021/12/22 10:33:25;;;;;;;11.03;6.10;;;-6.60;99.90;;;;;;5109050;28;20188;-57
2021/12/22 10:35:53;;;;;;;9.90;6.07;;;-6.60;99.90;;;;;;5108722;28;20200;-52
2021/12/22 10:38:23;;;;;;;9.70;6.00;;;-6.70;99.90;;;;;;5108904;28;20206;-54
2021/12/22 10:40:52;;;;;;;8.87;5.53;;;-6.70;99.90;;;;;;5108876;28;20528;-55
2021/12/22 10:43:22;;;;;;;9.50;5.97;;;-6.70;99.90;;;;;;5108402;28;20200;-56
2021/12/22 10:45:51;;;;;;;14.93;6.57;;;-6.70;99.90;;;;;;5107579;28;20204;-58
2021/12/22 10:51:26;;;;;;;11.63;6.37;;;-6.60;99.90;;;;;;5044648;28;20193;-57
2021/12/22 10:53:53;;;;;;;11.90;5.90;;;-6.50;99.90;;;;;;5045436;28;20201;-57
2021/12/22 10:56:27;;;;;;;12.47;6.37;;;-6.70;99.90;;;;;;5064622;28;20204;-55
2021/12/22 10:59:03;;;;;;;10.03;5.97;;;-6.80;99.90;;;;;;5108201;28;20196;-56
2021/12/22 11:01:31;;;;;;;7.60;4.90;;;-6.80;99.90;;;;;;5100549;28;20207;-58
2021/12/22 11:04:02;;;;;;;9.57;5.83;;;-7.00;99.90;;;;;;5087938;28;20200;-53
2021/12/22 11:06:31;;;;;;;17.97;11.27;;;-7.00;99.90;;;;;;5088027;28;20195;-56
2021/12/22 11:09:01;;;;;;;10.23;5.83;;;-7.00;99.90;;;;;;5087458;28;20315;-59
2021/12/22 11:11:36;;;;;;;8.83;5.40;;;-7.00;99.90;;;;;;5088198;28;20395;-54
2021/12/22 11:14:15;;;;;;;8.77;4.80;;;-6.90;99.90;;;;;;5098714;28;20198;-58
2021/12/22 11:17:07;;;;;;;8.90;5.43;;;-6.90;99.90;;;;;;5107755;28;20312;-58
2021/12/22 11:19:35;;;;;;;10.30;5.80;;;-7.00;99.90;;;;;;5092910;28;20211;-56
2021/12/22 11:22:09;;;;;;;9.37;5.17;;;-7.10;99.90;;;;;;5075690;28;20200;-58
2021/12/22 11:24:39;;;;;;;9.30;5.50;;;-7.10;99.90;;;;;;5088127;28;20532;-58
2021/12/22 11:27:07;;;;;;;7.87;5.50;;;-7.10;99.90;;;;;;5094335;28;20192;-56
2021/12/22 11:29:37;;;;;;;9.70;5.63;;;-7.20;99.90;;;;;;5093041;28;20220;-58
2021/12/22 11:32:06;;;;;;;9.47;5.90;;;-7.30;99.90;;;;;;5094326;28;20679;-57
2021/12/22 11:34:36;;;;;;;7.63;5.47;;;-7.40;99.90;;;;;;5089088;28;20203;-57
2021/12/22 11:37:04;;;;;;;7.63;4.97;;;-7.40;99.90;;;;;;5094374;28;20291;-59
2021/12/22 11:39:31;;;;;;;10.40;5.63;;;-7.40;99.90;;;;;;5094341;28;20200;-57
2021/12/22 11:42:02;;;;;;;7.97;5.03;;;-7.30;99.90;;;;;;5094123;28;20208;-56
2021/12/22 11:44:30;;;;;;;10.63;5.33;;;-7.30;99.90;;;;;;5090113;28;20559;-60
2021/12/22 11:47:00;;;;;;;13.43;5.27;;;-7.30;99.90;;;;;;5093546;28;20200;-58
2021/12/22 11:49:27;;;;;;;9.20;5.00;;;-7.40;99.90;;;;;;5088594;28;20228;-57
2021/12/22 11:51:54;;;;;;;9.63;5.33;;;-7.60;99.90;;;;;;5093798;28;20619;-57
2021/12/22 11:54:26;;;;;;;8.27;4.90;;;-7.60;99.90;;;;;;5081873;28;20232;-58
2021/12/22 11:56:55;;;;;;;10.33;6.00;;;-7.60;99.90;;;;;;5073452;28;20224;-56
2021/12/22 11:59:34;;;;;;;11.20;5.90;;;-7.60;99.90;;;;;;5073771;28;20219;-54
2021/12/22 12:02:25;;;;;;;8.33;5.60;;;-7.60;99.90;;;;;;5073846;28;20662;-57
2021/12/22 12:04:54;;;;;;;9.83;5.60;;;-7.50;99.90;;;;;;5090256;28;20223;-57
2021/12/22 12:07:46;;;;;;;10.57;6.00;;;-7.50;99.90;;;;;;5075500;28;20231;-60
2021/12/22 12:10:32;;;;;;;12.57;6.00;;;-7.40;99.90;;;;;;5087621;28;20255;-55
2021/12/22 12:13:04;;;;;;;12.07;5.70;;;-7.20;99.90;;;;;;5093672;28;20204;-57
2021/12/22 12:21:40;;;;;;;9.80;5.93;;;-7.20;99.90;;;;;;5093589;28;20192;-56
2021/12/22 12:22:00;;;;;;;9.03;5.77;;;-7.10;99.90;;;;;;5093268;28;20663;-54
2021/12/22 12:24:34;;;;;;;10.03;6.10;;;-7.10;99.90;;;;;;5092550;28;20192;-56
2021/12/22 12:27:02;;;;;;;12.80;5.80;;;-7.10;99.90;;;;;;5093360;28;20648;-56
2021/12/22 12:29:56;;;;;;;10.93;6.03;;;-7.00;99.90;;;;;;5087965;28;20223;-56
2021/12/22 12:32:57;;;;;;;10.73;6.00;;;-7.00;99.90;;;;;;5073758;28;20245;-55
2021/12/22 12:35:28;;;;;;;14.40;6.37;;;-7.10;99.90;;;;;;5083741;28;20279;-59
2021/12/22 12:38:09;;;;;;;13.07;6.30;;;-7.10;99.90;;;;;;5091143;28;20231;-56
2021/12/22 12:41:12;;;;;;;11.30;6.47;;;-7.10;99.90;;;;;;5083841;28;20280;-56
2021/12/22 12:43:47;;;;;;;11.97;6.33;;;-7.00;99.90;;;;;;5072743;28;20567;-58
2021/12/22 12:46:34;;;;;;;10.63;6.77;;;-7.00;99.90;;;;;;5072394;28;20204;-57
2021/12/22 12:49:33;;;;;;;11.73;6.77;;;-7.10;99.90;;;;;;5083065;28;20729;-60
2021/12/22 12:52:06;;;;;;;13.57;6.43;;;-7.10;99.90;;;;;;5092567;28;20210;-57
2021/12/22 12:54:39;;;;;;;8.27;5.40;;;-7.10;99.90;;;;;;5092117;28;20549;-57
2021/12/22 12:57:31;;;;;;;8.13;4.83;;;-7.20;99.90;;;;;;5093119;28;20189;-59
2021/12/22 13:00:06;;;;;;;8.47;4.77;;;-7.40;99.90;;;;;;5093055;28;20207;-60